Date,TemperatureHighF,TemperatureAvgF,TemperatureLowF,DewpointHighF,DewpointAvgF,DewpointLowF,HumidityHigh,HumidityAvg,HumidityLow,PressureMaxIn,PressureMinIn,WindSpeedMaxMPH,WindSpeedAvgMPH,GustSpeedMaxMPH,PrecipitationSumIn
2013-8-1,77.2,52.3,68.6,68.0,19.0,-99.9,92,56,64,30.04,29.83,6,-276,12,0.64
2013-8-2,87.1,58.7,68.5,65.0,17.2,-99.9,87,38,39,29.90,29.78,10,-272,13,0.00
2013-8-3,80.5,65.3,70.9,67.0,42.3,-99.9,81,59,53,29.91,29.83,7,-127,14,0.03
2013-8-4,81.8,67.1,69.2,64.0,38.0,-99.9,77,45,36,29.95,29.84,8,-112,15,0.00
2013-8-5,80.6,62.9,63.9,57.0,26.3,-99.9,67,37,31,30.04,29.95,8,-140,13,0.00
2013-8-6,82.6,62.8,67.8,61.0,30.6,-99.9,69,45,35,30.12,30.02,9,-165,14,0.00
2013-8-7,81.0,62.2,71.5,68.0,37.0,-99.9,85,59,56,30.14,30.06,9,-164,14,0.00
2013-8-8,81.9,63.6,70.7,74.0,44.0,-99.9,91,72,73,30.07,29.99,7,-156,13,0.54
2013-8-9,87.4,67.7,73.7,76.0,46.1,-99.9,94,67,64,30.01,29.79,11,-154,14,0.00
2013-8-10,87.1,67.5,72.8,72.0,36.3,-99.9,81,46,43,30.04,29.85,8,-156,12,0.00
2013-8-11,84.1,61.7,69.1,66.0,26.1,-99.9,78,41,37,30.11,30.02,5,-194,9,0.00
2013-8-12,85.4,62.9,70.0,69.0,37.6,-99.9,89,61,51,30.03,29.92,5,-176,9,0.00
2013-8-13,81.3,60.6,68.3,72.0,37.4,-99.9,92,66,62,29.92,29.69,5,-180,8,1.11
2013-8-14,75.9,61.5,62.1,65.0,33.6,-99.9,81,47,43,30.04,29.74,15,-118,17,0.00
2013-8-15,80.8,60.7,62.8,58.0,24.9,-99.9,66,38,31,30.14,30.04,6,-163,10,0.00
2013-8-16,83.7,63.6,64.0,58.0,31.3,-99.9,76,43,31,30.20,30.12,7,-144,10,0.00
2013-8-17,83.7,65.5,67.2,58.0,34.4,-99.9,69,44,36,30.26,30.20,5,-136,9,0.00
2013-8-18,78.9,61.2,69.7,62.0,30.8,-99.9,74,48,38,30.25,30.12,6,-167,8,0.00
2013-8-19,81.1,64.7,66.9,66.0,39.5,-99.9,80,55,51,30.12,30.02,7,-134,12,0.00
2013-8-20,90.3,68.9,69.3,69.0,40.6,-99.9,85,52,39,30.12,30.04,7,-148,10,0.00
2013-8-21,91.1,69.9,73.6,69.0,38.8,-99.9,72,47,35,30.17,30.05,7,-156,10,0.00
2013-8-22,82.1,64.4,72.5,72.0,43.6,-99.9,90,69,67,30.06,29.86,5,-156,10,0.38
2013-8-23,84.4,67.0,72.2,71.0,36.4,-99.9,88,46,30,30.08,29.86,8,-138,14,0.00
2013-8-24,80.5,62.4,65.2,60.0,31.7,-99.9,72,45,34,30.34,30.09,7,-144,12,0.00
2013-8-25,84.6,64.4,66.7,60.0,31.3,-99.9,76,43,33,30.38,30.23,6,-155,11,0.00
2013-8-26,85.0,64.5,69.4,69.0,35.4,-99.9,80,50,49,30.23,29.91,7,-165,12,0.03
2013-8-27,88.6,66.9,72.6,69.0,38.1,-99.9,82,53,48,29.90,29.81,6,-174,12,0.00
2013-8-28,87.1,63.4,74.2,71.0,35.9,-99.9,85,59,55,29.89,29.84,5,-197,9,0.08
2013-8-29,81.0,50.5,70.7,68.0,11.0,-99.9,88,49,60,30.02,29.87,7,-331,12,0.00
2013-8-30,87.1,63.2,69.7,71.0,34.8,-99.9,83,56,52,30.02,29.85,6,-194,14,0.00
2013-8-31,87.5,66.9,73.3,74.0,42.6,-99.9,85,62,62,29.86,29.78,7,-166,11,0.00